Time;durP1;ratioP1;P1;durP2;ratioP2;P2;SDS_P1;SDS_P2;PMS_P1;PMS_P2;Temp;Humidity;BMP_temperature;BMP_pressure;BME280_temperature;BME280_humidity;BME280_pressure;Samples;Min_cycle;Max_cycle;Signal;HPM_P1;HPM_P2
2021/09/02 00:02:02;;;;;;;4.95;4.45;;;;;;;13.55;87.43;94634.22;1699802;84;21031;-64
2021/09/02 00:04:29;;;;;;;7.35;4.83;;;;;;;13.54;87.26;94639.61;1690104;83;20959;-65
2021/09/02 00:06:57;;;;;;;11.85;7.78;;;;;;;13.50;87.27;94645.33;1678902;83;21043;-66
2021/09/02 00:09:24;;;;;;;5.10;4.00;;;;;;;13.46;87.29;94646.72;1701895;84;20961;-65
2021/09/02 00:11:51;;;;;;;4.60;4.10;;;;;;;13.40;86.52;94632.77;1684298;84;21416;-65
2021/09/02 00:14:19;;;;;;;3.85;3.33;;;;;;;13.33;85.58;94640.63;1697597;83;20967;-65
2021/09/02 00:16:45;;;;;;;5.10;3.10;;;;;;;13.25;85.39;94646.35;1692916;84;21019;-65
2021/09/02 00:19:12;;;;;;;4.25;3.58;;;;;;;13.16;85.23;94636.10;1702075;84;21534;-66
2021/09/02 00:21:39;;;;;;;5.22;3.35;;;;;;;13.09;84.87;94650.23;1701858;83;21071;-66
2021/09/02 00:24:06;;;;;;;3.67;3.37;;;;;;;13.00;84.90;94648.11;1701093;84;21161;-65
2021/09/02 00:26:33;;;;;;;6.53;3.62;;;;;;;12.95;85.53;94647.36;1695123;83;20995;-65
2021/09/02 00:29:00;;;;;;;5.05;3.37;;;;;;;12.94;85.85;94649.97;1690965;83;20967;-65
2021/09/02 00:31:28;;;;;;;4.00;3.60;;;;;;;12.92;85.82;94654.56;1697841;83;21193;-65
2021/09/02 00:33:54;;;;;;;5.60;3.75;;;;;;;12.87;85.63;94655.80;1693794;83;21015;-65
2021/09/02 00:36:21;;;;;;;3.77;3.40;;;;;;;12.79;85.64;94657.33;1701363;83;21113;-66
2021/09/02 00:38:49;;;;;;;4.35;3.15;;;;;;;12.74;85.87;94662.10;1696364;84;20954;-66
2021/09/02 00:41:16;;;;;;;3.33;2.87;;;;;;;12.72;85.40;94657.66;1682632;84;21090;-66
2021/09/02 00:43:43;;;;;;;4.25;3.45;;;;;;;12.65;85.22;94666.24;1685526;84;21024;-65
2021/09/02 00:46:10;;;;;;;3.58;3.27;;;;;;;12.60;85.46;94659.97;1690555;83;21121;-65
2021/09/02 00:48:37;;;;;;;4.95;3.60;;;;;;;12.57;85.74;94669.92;1684777;84;22433;-65
2021/09/02 00:51:04;;;;;;;6.50;3.40;;;;;;;12.56;86.16;94670.41;1689330;84;20944;-65
2021/09/02 00:53:31;;;;;;;7.17;2.83;;;;;;;12.55;86.43;94671.00;1682664;84;21538;-66
2021/09/02 00:55:59;;;;;;;3.42;3.12;;;;;;;12.58;86.61;94663.81;1680579;83;21102;-66
2021/09/02 00:58:25;;;;;;;4.70;3.40;;;;;;;12.57;86.74;94667.80;1692382;83;21490;-66
2021/09/02 01:00:52;;;;;;;5.67;3.35;;;;;;;12.58;87.24;94670.70;1693028;83;21147;-66
2021/09/02 01:03:20;;;;;;;5.12;3.50;;;;;;;12.61;87.41;94673.31;1690603;83;21090;-66
2021/09/02 01:05:52;;;;;;;4.17;3.42;;;;;;;12.64;87.68;94666.09;1689252;83;21062;-66
2021/09/02 01:08:19;;;;;;;4.20;3.65;;;;;;;12.71;87.72;94664.41;1697882;84;20972;-66
2021/09/02 01:10:49;;;;;;;5.53;3.60;;;;;;;12.78;87.76;94666.84;1701890;83;20996;-66
2021/09/02 01:13:20;;;;;;;4.70;3.33;;;;;;;12.85;87.45;94665.91;1682495;84;21167;-67
2021/09/02 01:15:49;;;;;;;6.60;3.13;;;;;;;12.85;87.31;94667.30;1689480;84;21065;-65
2021/09/02 01:18:16;;;;;;;4.20;3.20;;;;;;;12.82;87.17;94664.69;1701433;84;21558;-65
2021/09/02 01:20:42;;;;;;;4.97;3.17;;;;;;;12.80;87.40;94662.41;1682263;84;21589;-65
2021/09/02 01:23:10;;;;;;;3.55;3.25;;;;;;;12.80;87.34;94661.62;1699633;83;20964;-65
2021/09/02 01:25:42;;;;;;;4.47;3.42;;;;;;;12.74;87.41;94656.58;1697901;84;21131;-66
2021/09/02 01:28:10;;;;;;;3.40;2.83;;;;;;;12.72;87.67;94657.66;1693691;84;21675;-67
2021/09/02 01:30:38;;;;;;;3.12;2.90;;;;;;;12.73;87.57;94653.67;1697321;83;20979;-66
2021/09/02 01:33:07;;;;;;;3.40;3.00;;;;;;;12.74;87.24;94652.44;1698175;83;20971;-66
2021/09/02 01:35:34;;;;;;;3.92;2.90;;;;;;;12.74;87.19;94655.95;1687059;83;21066;-65
2021/09/02 01:38:05;;;;;;;4.00;3.22;;;;;;;12.71;87.11;94647.85;1680048;84;21791;-66
2021/09/02 01:40:39;;;;;;;3.22;2.95;;;;;;;12.68;87.35;94650.16;1702050;84;21026;-64
2021/09/02 01:43:08;;;;;;;3.15;2.72;;;;;;;12.71;87.31;94651.99;1677383;83;21050;-67
2021/09/02 01:45:36;;;;;;;3.10;2.85;;;;;;;12.70;86.99;94649.08;1695478;83;21494;-65
2021/09/02 01:48:04;;;;;;;4.03;3.10;;;;;;;12.66;86.81;94659.49;1691205;84;21054;-66
2021/09/02 01:50:34;;;;;;;3.50;3.20;;;;;;;12.64;87.11;94656.43;1701285;83;21142;-65
2021/09/02 01:53:08;;;;;;;4.62;3.15;;;;;;;12.66;87.13;94653.97;1672162;84;20983;-65
2021/09/02 01:55:36;;;;;;;3.55;2.90;;;;;;;12.64;87.18;94653.67;1683291;84;21089;-65
2021/09/02 01:58:05;;;;;;;3.02;2.72;;;;;;;12.67;87.13;94645.84;1690824;84;20999;-66
2021/09/02 02:00:32;;;;;;;4.35;2.90;;;;;;;12.68;87.27;94650.16;1689022;83;21082;-66
2021/09/02 02:02:59;;;;;;;3.05;2.85;;;;;;;12.65;87.07;94650.46;1689431;83;21163;-64
2021/09/02 02:05:26;;;;;;;5.95;2.90;;;;;;;12.57;87.12;94651.98;1698031;83;21050;-66
2021/09/02 02:07:53;;;;;;;3.67;3.37;;;;;;;12.50;87.26;94647.42;1687258;83;21010;-65
2021/09/02 02:10:26;;;;;;;3.20;2.83;;;;;;;12.47;87.62;94644.19;1684571;83;20956;-65
2021/09/02 02:12:51;;;;;;;3.90;2.87;;;;;;;12.49;87.66;94650.00;1691285;84;21450;-65
2021/09/02 02:15:18;;;;;;;2.83;2.60;;;;;;;12.50;87.64;94643.28;1692178;83;21141;-66
2021/09/02 02:17:44;;;;;;;5.62;3.00;;;;;;;12.51;87.79;94636.54;1686481;83;20995;-66
2021/09/02 02:20:13;;;;;;;3.90;3.17;;;;;;;12.53;87.66;94647.88;1683365;84;21221;-65
2021/09/02 02:22:40;;;;;;;4.42;3.00;;;;;;;12.53;87.57;94638.22;1687471;83;21014;-65
2021/09/02 02:25:11;;;;;;;4.08;2.60;;;;;;;12.54;87.48;94634.98;1681209;83;21596;-66
2021/09/02 02:27:39;;;;;;;4.60;2.52;;;;;;;12.59;87.59;94635.76;1696280;83;21170;-67
2021/09/02 02:30:09;;;;;;;3.20;2.80;;;;;;;12.62;87.42;94634.05;1692174;84;21471;-68
2021/09/02 02:32:35;;;;;;;4.25;3.20;;;;;;;12.57;87.23;94632.67;1685799;84;20974;-65
2021/09/02 02:35:02;;;;;;;3.20;2.90;;;;;;;12.55;87.45;94631.62;1691057;83;21526;-67
2021/09/02 02:37:29;;;;;;;7.55;2.77;;;;;;;12.55;87.42;94632.37;1700611;83;21031;-67
2021/09/02 02:39:56;;;;;;;4.42;2.50;;;;;;;12.56;87.63;94625.63;1699263;83;21814;-65
2021/09/02 02:42:23;;;;;;;4.45;2.98;;;;;;;12.61;87.58;94624.24;1697781;83;21046;-66
2021/09/02 02:44:51;;;;;;;4.47;3.12;;;;;;;12.60;87.54;94622.11;1696737;83;21448;-65
2021/09/02 02:47:17;;;;;;;6.72;2.77;;;;;;;12.59;87.49;94618.42;1695208;84;21007;-65
2021/09/02 02:49:44;;;;;;;4.45;3.00;;;;;;;12.57;87.41;94618.13;1699132;83;21051;-66
2021/09/02 02:52:10;;;;;;;3.20;2.90;;;;;;;12.57;87.40;94619.50;1697061;83;21981;-65
2021/09/02 02:54:37;;;;;;;3.60;3.25;;;;;;;12.57;87.52;94623.64;1694820;83;21011;-66
2021/09/02 02:57:04;;;;;;;8.10;3.20;;;;;;;12.59;87.75;94624.72;1696458;83;21042;-67
2021/09/02 02:59:33;;;;;;;4.10;2.92;;;;;;;12.61;87.59;94625.02;1675002;84;21506;-66
2021/09/02 03:02:00;;;;;;;3.80;3.22;;;;;;;12.64;87.82;94624.09;1690909;84;20963;-67
2021/09/02 03:04:27;;;;;;;5.00;3.00;;;;;;;12.69;87.66;94619.31;1689796;84;21151;-66
2021/09/02 03:06:54;;;;;;;3.42;3.12;;;;;;;12.77;87.64;94619.77;1683079;84;20947;-66
2021/09/02 03:09:21;;;;;;;3.67;2.80;;;;;;;12.77;87.25;94619.16;1689844;83;21506;-66
2021/09/02 03:11:47;;;;;;;4.25;3.05;;;;;;;12.74;87.26;94625.59;1676680;84;20971;-66
2021/09/02 03:14:15;;;;;;;6.30;3.15;;;;;;;12.73;87.32;94624.69;1682053;83;20966;-65
2021/09/02 03:16:44;;;;;;;3.27;2.98;;;;;;;12.73;87.26;94621.30;1681925;83;21059;-66
2021/09/02 03:19:11;;;;;;;3.45;3.00;;;;;;;12.74;87.20;94619.31;1649521;83;20967;-66
2021/09/02 03:21:37;;;;;;;5.55;3.27;;;;;;;12.75;87.37;94620.84;1697876;83;20984;-66
2021/09/02 03:24:05;;;;;;;3.95;3.12;;;;;;;12.75;87.08;94626.37;1701310;84;21109;-66
2021/09/02 03:26:32;;;;;;;4.78;2.72;;;;;;;12.72;86.95;94630.81;1690290;83;21053;-65
2021/09/02 03:28:58;;;;;;;6.72;2.98;;;;;;;12.71;86.96;94629.91;1693641;83;22330;-65
2021/09/02 03:31:25;;;;;;;3.55;2.67;;;;;;;12.72;86.99;94628.68;1695083;83;20952;-66
2021/09/02 03:33:52;;;;;;;3.02;2.72;;;;;;;12.72;86.96;94632.82;1684764;83;21628;-66
2021/09/02 03:36:20;;;;;;;3.42;3.12;;;;;;;12.70;86.87;94621.48;1702022;83;21484;-66
2021/09/02 03:38:47;;;;;;;3.27;2.75;;;;;;;12.65;87.09;94631.73;1687338;83;21042;-65
2021/09/02 03:41:14;;;;;;;3.33;3.00;;;;;;;12.65;87.51;94628.98;1693531;83;21160;-65
2021/09/02 03:43:41;;;;;;;3.67;3.05;;;;;;;12.70;87.60;94635.28;1697072;83;21059;-66
2021/09/02 03:46:07;;;;;;;3.92;3.55;;;;;;;12.69;87.60;94624.09;1695727;83;21617;-66
2021/09/02 03:48:35;;;;;;;6.47;3.60;;;;;;;12.71;87.73;94634.05;1696499;83;21040;-66
2021/09/02 03:51:01;;;;;;;3.45;3.15;;;;;;;12.68;87.57;94638.49;1685517;83;20971;-65
2021/09/02 03:53:28;;;;;;;3.47;3.17;;;;;;;12.64;87.70;94638.49;1685248;83;21392;-66
2021/09/02 03:55:55;;;;;;;7.10;4.83;;;;;;;12.61;88.06;94646.32;1697428;83;21514;-65
2021/09/02 03:58:21;;;;;;;8.88;3.75;;;;;;;12.62;88.19;94643.71;1688833;83;21081;-65
2021/09/02 04:00:48;;;;;;;7.83;4.08;;;;;;;12.57;88.22;94654.75;1697760;84;20985;-66
2021/09/02 04:03:14;;;;;;;6.65;3.83;;;;;;;12.51;88.31;94654.47;1698636;83;20994;-66
2021/09/02 04:05:43;;;;;;;6.95;3.85;;;;;;;12.49;88.62;94661.05;1698668;83;20975;-65
2021/09/02 04:08:09;;;;;;;6.33;4.15;;;;;;;12.54;88.79;94663.95;1677803;84;21002;-66
2021/09/02 04:10:36;;;;;;;7.15;4.03;;;;;;;12.58;88.52;94665.97;1696239;83;21006;-64
2021/09/02 04:13:03;;;;;;;4.55;3.77;;;;;;;12.56;88.50;94663.50;1705572;83;20995;-66
2021/09/02 04:15:30;;;;;;;4.12;3.50;;;;;;;12.55;88.63;94670.25;1697293;84;21462;-66
2021/09/02 04:17:57;;;;;;;3.90;3.40;;;;;;;12.57;88.63;94674.06;1697942;84;21771;-66
2021/09/02 04:20:24;;;;;;;5.28;3.60;;;;;;;12.58;88.60;94673.47;1682230;84;21450;-64
2021/09/02 04:22:51;;;;;;;6.50;3.35;;;;;;;12.57;88.75;94677.45;1686957;83;21019;-65
2021/09/02 04:25:18;;;;;;;5.92;4.42;;;;;;;12.57;88.97;94673.31;1689034;83;21475;-65
2021/09/02 04:27:44;;;;;;;6.55;4.17;;;;;;;12.61;88.66;94691.26;1702730;83;21003;-66
2021/09/02 04:30:13;;;;;;;4.87;3.90;;;;;;;12.64;88.41;94681.27;1694215;83;21121;-65
2021/09/02 04:32:42;;;;;;;18.27;12.03;;;;;;;12.70;88.18;94693.25;1691989;84;20999;-65
2021/09/02 04:35:10;;;;;;;15.03;12.13;;;;;;;12.70;88.08;94692.62;1693672;83;20975;-65
2021/09/02 04:37:42;;;;;;;9.43;7.42;;;;;;;12.69;88.05;94694.48;1694547;84;21542;-65
2021/09/02 04:40:09;;;;;;;5.62;4.95;;;;;;;12.70;88.30;94691.87;1695972;83;21121;-66
2021/09/02 04:42:36;;;;;;;5.65;4.45;;;;;;;12.76;88.33;94694.15;1696686;84;21861;-66
2021/09/02 04:45:05;;;;;;;7.78;4.95;;;;;;;12.77;87.25;94702.58;1699178;83;21055;-65
2021/09/02 04:47:33;;;;;;;7.55;4.60;;;;;;;12.73;86.31;94699.22;1701656;83;33639;-66
2021/09/02 04:50:00;;;;;;;6.47;5.10;;;;;;;12.65;86.29;94695.22;1686108;83;20962;-66
2021/09/02 04:52:27;;;;;;;4.80;4.30;;;;;;;12.58;86.28;94699.69;1692536;83;20979;-66
2021/09/02 04:54:54;;;;;;;4.53;4.12;;;;;;;12.54;86.56;94702.59;1698724;84;21788;-66
2021/09/02 04:57:21;;;;;;;5.17;4.62;;;;;;;12.59;86.89;94702.59;1693262;83;20952;-66
2021/09/02 04:59:48;;;;;;;4.87;3.90;;;;;;;12.60;86.88;94698.01;1693613;83;21054;-66
2021/09/02 05:02:16;;;;;;;7.87;3.87;;;;;;;12.67;87.21;94704.58;1691067;84;21482;-66
2021/09/02 05:04:43;;;;;;;5.62;4.62;;;;;;;12.77;87.21;94697.06;1698349;84;21083;-65
2021/09/02 05:07:10;;;;;;;6.87;4.30;;;;;;;12.85;86.49;94689.37;1695683;83;21124;-67
2021/09/02 05:09:36;;;;;;;4.97;4.28;;;;;;;12.86;86.21;94681.25;1686982;84;21452;-66
2021/09/02 05:12:04;;;;;;;4.35;3.95;;;;;;;12.88;86.37;94688.45;1686979;83;21574;-66
2021/09/02 05:14:31;;;;;;;9.15;4.83;;;;;;;12.92;85.69;94685.54;1702008;83;20967;-67
2021/09/02 05:16:59;;;;;;;5.83;4.33;;;;;;;12.93;85.71;94684.34;1680013;83;21424;-66
2021/09/02 05:19:28;;;;;;;4.85;3.75;;;;;;;12.96;85.65;94692.47;1697845;83;20970;-66
2021/09/02 05:21:54;;;;;;;5.25;4.08;;;;;;;13.02;85.73;94684.30;1697402;84;21445;-66
2021/09/02 05:24:22;;;;;;;5.75;4.12;;;;;;;13.08;85.59;94692.13;1699591;83;21042;-67
2021/09/02 05:26:49;;;;;;;4.62;4.03;;;;;;;13.16;85.45;94700.23;1688737;84;21505;-67
2021/09/02 05:29:15;;;;;;;4.37;3.80;;;;;;;13.18;85.41;94690.86;1700936;83;21523;-67
2021/09/02 05:31:43;;;;;;;5.37;3.90;;;;;;;13.20;85.31;94690.56;1697876;83;21159;-66
2021/09/02 05:34:10;;;;;;;10.45;3.85;;;;;;;13.25;85.44;94689.17;1696116;84;21139;-66
2021/09/02 05:36:37;;;;;;;14.73;7.00;;;;;;;13.30;85.28;94687.16;1696717;83;20987;-66
2021/09/02 05:39:06;;;;;;;17.87;12.10;;;;;;;13.32;85.27;94690.99;1681579;83;21038;-66
2021/09/02 05:41:32;;;;;;;12.07;8.00;;;;;;;13.32;85.04;94699.89;1693636;83;21050;-67
2021/09/02 05:44:00;;;;;;;8.70;6.37;;;;;;;13.29;85.09;94698.05;1692912;83;21163;-67
2021/09/02 05:46:27;;;;;;;11.60;5.97;;;;;;;13.26;85.11;94700.38;1685629;84;21057;-68
2021/09/02 05:48:54;;;;;;;8.88;6.80;;;;;;;13.26;84.86;94697.61;1690232;82;21636;-66
2021/09/02 05:51:23;;;;;;;16.80;12.53;;;;;;;13.24;84.05;94691.78;1693943;83;21562;-65
2021/09/02 05:53:51;;;;;;;11.30;8.00;;;;;;;13.21;83.83;94698.22;1701348;83;21564;-64
2021/09/02 05:56:18;;;;;;;10.90;7.78;;;;;;;13.16;83.38;94702.39;1689450;83;21168;-67
2021/09/02 05:58:45;;;;;;;8.38;6.62;;;;;;;13.12;83.01;94696.25;1701126;82;21041;-65
2021/09/02 06:01:14;;;;;;;8.95;5.33;;;;;;;13.18;83.38;94697.77;1698933;82;21629;-61
2021/09/02 06:03:41;;;;;;;8.65;4.80;;;;;;;13.24;83.74;94695.30;1674635;83;21083;-66
2021/09/02 06:06:07;;;;;;;5.97;4.92;;;;;;;13.28;83.60;94700.67;1701241;82;21308;-62
2021/09/02 06:08:35;;;;;;;7.65;6.83;;;;;;;13.31;82.69;94692.83;1693531;83;21151;-69
2021/09/02 06:11:03;;;;;;;6.65;5.20;;;;;;;13.36;81.64;94699.09;1686657;83;21590;-65
2021/09/02 06:13:30;;;;;;;11.43;8.00;;;;;;;13.37;81.52;94696.48;1702631;82;21091;-63
2021/09/02 06:15:57;;;;;;;7.17;5.42;;;;;;;13.38;80.52;94702.16;1698786;82;21116;-63
2021/09/02 06:18:24;;;;;;;9.70;5.72;;;;;;;13.33;79.62;94702.80;1694190;82;21032;-69
2021/09/02 06:20:52;;;;;;;7.25;6.00;;;;;;;13.29;79.30;94709.11;1672849;82;21456;-67
2021/09/02 06:23:19;;;;;;;8.60;5.92;;;;;;;13.26;78.89;94707.28;1697897;82;20986;-67
2021/09/02 06:25:45;;;;;;;9.70;5.70;;;;;;;13.23;79.04;94706.83;1684298;82;21116;-66
2021/09/02 06:28:12;;;;;;;10.08;6.62;;;;;;;13.23;79.29;94708.97;1707079;81;21721;-69
2021/09/02 06:30:39;;;;;;;11.18;6.97;;;;;;;13.21;79.18;94715.58;1684525;83;21096;-72
2021/09/02 06:33:06;;;;;;;10.82;6.58;;;;;;;13.23;79.44;94710.98;1690172;82;21156;-61
2021/09/02 06:35:33;;;;;;;13.32;8.18;;;;;;;13.29;79.63;94710.48;1685814;83;21103;-63
2021/09/02 06:38:00;;;;;;;11.22;6.95;;;;;;;13.39;79.45;94711.98;1684602;83;21045;-60
2021/09/02 06:40:30;;;;;;;10.40;6.80;;;;;;;13.47;78.40;94714.58;1693731;82;21519;-65
2021/09/02 06:42:58;;;;;;;11.28;7.78;;;;;;;13.47;77.91;94715.33;1674534;83;21102;-65
2021/09/02 06:45:25;;;;;;;9.08;6.85;;;;;;;13.48;77.75;94718.87;1696755;82;22174;-65
2021/09/02 06:47:53;;;;;;;7.90;6.15;;;;;;;13.50;77.42;94721.94;1700033;83;21098;-67
2021/09/02 06:50:20;;;;;;;8.00;5.90;;;;;;;13.53;76.96;94722.38;1685700;82;21080;-62
2021/09/02 06:52:50;;;;;;;10.10;6.62;;;;;;;13.53;76.46;94725.14;1673580;83;21093;-73
2021/09/02 06:55:17;;;;;;;7.62;6.10;;;;;;;13.48;76.52;94732.06;1687179;83;21564;-74
2021/09/02 06:57:44;;;;;;;10.85;6.50;;;;;;;13.46;76.43;94732.39;1693430;83;21082;-67
2021/09/02 07:00:18;;;;;;;9.58;5.72;;;;;;;13.42;76.59;94740.09;1696413;83;21042;-66
2021/09/02 07:02:46;;;;;;;6.90;5.50;;;;;;;13.41;76.59;94744.09;1666721;83;21214;-64
2021/09/02 07:05:14;;;;;;;11.05;6.20;;;;;;;13.35;76.30;94743.94;1680933;82;21177;-62
2021/09/02 07:07:42;;;;;;;9.45;6.67;;;;;;;13.30;76.84;94756.98;1686498;82;21624;-62
2021/09/02 07:10:18;;;;;;;9.15;6.83;;;;;;;13.24;77.55;94754.70;1672402;82;22336;-62
2021/09/02 07:12:50;;;;;;;16.45;6.47;;;;;;;13.20;77.89;94764.37;1689281;82;21045;-63
2021/09/02 07:15:19;;;;;;;11.55;7.42;;;;;;;13.19;77.99;94764.22;1688472;83;21092;-62
2021/09/02 07:17:46;;;;;;;11.80;7.58;;;;;;;13.15;78.29;94771.31;1688942;82;21067;-60
2021/09/02 07:20:13;;;;;;;8.98;6.83;;;;;;;13.18;78.22;94775.13;1681439;83;21186;-69
2021/09/02 07:22:42;;;;;;;9.70;6.40;;;;;;;13.20;78.68;94768.52;1691400;83;21124;-66
2021/09/02 07:25:12;;;;;;;7.97;5.80;;;;;;;13.22;78.68;94775.72;1636326;83;21248;-59
2021/09/02 07:27:39;;;;;;;9.03;6.75;;;;;;;13.25;78.70;94772.81;1661295;83;21201;-62
2021/09/02 07:30:08;;;;;;;8.88;6.58;;;;;;;13.30;78.77;94775.57;1664169;84;21208;-66
2021/09/02 07:32:34;;;;;;;16.90;12.05;;;;;;;13.36;78.80;94777.25;1638314;85;21106;-68
2021/09/02 07:35:02;;;;;;;9.23;6.80;;;;;;;13.39;78.98;94775.53;1631140;85;21175;-63
2021/09/02 07:37:28;;;;;;;13.40;8.43;;;;;;;13.36;78.24;94779.23;1649902;84;21074;-60
2021/09/02 07:39:55;;;;;;;39.88;23.42;;;;;;;13.33;78.08;94781.55;1665691;84;21705;-64
2021/09/02 07:42:22;;;;;;;22.80;13.88;;;;;;;13.31;78.08;94778.48;1622297;86;21122;-63
2021/09/02 07:44:49;;;;;;;13.58;9.35;;;;;;;13.30;77.73;94780.47;1652007;85;21126;-62
2021/09/02 07:47:16;;;;;;;14.60;13.08;;;;;;;13.30;77.52;94785.99;1657332;84;21130;-67
2021/09/02 07:49:43;;;;;;;12.05;10.63;;;;;;;13.31;77.57;94782.63;1648040;84;21166;-60
2021/09/02 07:52:11;;;;;;;10.32;6.95;;;;;;;13.29;77.10;94789.23;1623446;85;21756;-61
2021/09/02 07:54:38;;;;;;;23.70;19.62;;;;;;;13.22;77.02;94781.25;1636432;85;21123;-56
2021/09/02 07:57:08;;;;;;;39.55;31.10;;;;;;;13.19;77.59;94782.95;1634218;85;21140;-63
2021/09/02 07:59:38;;;;;;;40.00;30.15;;;;;;;13.26;77.62;94790.17;1633159;85;21612;-66
2021/09/02 08:02:05;;;;;;;21.65;17.15;;;;;;;13.34;77.82;94784.45;1638180;85;21208;-69
2021/09/02 08:04:32;;;;;;;17.25;10.90;;;;;;;13.42;77.92;94788.45;1637102;85;21958;-69
2021/09/02 08:07:02;;;;;;;15.75;14.10;;;;;;;13.50;77.57;94779.98;1627040;85;21177;-65
2021/09/02 08:09:31;;;;;;;14.50;11.75;;;;;;;13.61;77.10;94789.94;1628611;85;21183;-64
2021/09/02 08:11:59;;;;;;;12.65;9.15;;;;;;;13.73;76.61;94787.58;1643071;85;21185;-66
2021/09/02 08:14:27;;;;;;;14.73;9.68;;;;;;;13.87;76.86;94786.92;1631334;85;21158;-61
2021/09/02 08:16:54;;;;;;;14.03;8.98;;;;;;;14.02;76.29;94790.55;1632915;84;22002;-60
2021/09/02 08:19:21;;;;;;;13.35;9.33;;;;;;;14.17;75.99;94792.19;1627973;85;21155;-62
2021/09/02 08:21:49;;;;;;;19.70;8.93;;;;;;;14.32;75.05;94790.27;1638687;85;20999;-71
2021/09/02 08:24:16;;;;;;;12.35;8.45;;;;;;;14.44;74.97;94794.82;1637136;85;22340;-67
2021/09/02 08:26:46;;;;;;;12.23;6.22;;;;;;;14.49;74.23;94797.69;1643093;84;21391;-66
2021/09/02 08:29:14;;;;;;;10.90;7.40;;;;;;;14.52;72.63;94795.98;1648521;84;21583;-59
2021/09/02 08:31:41;;;;;;;16.40;7.35;;;;;;;14.59;72.31;94797.04;1648446;83;20958;-62
2021/09/02 08:34:08;;;;;;;9.38;6.62;;;;;;;14.62;72.35;94801.00;1643924;85;21229;-69
2021/09/02 08:36:35;;;;;;;10.08;7.12;;;;;;;14.65;72.22;94797.28;1636193;85;21202;-62
2021/09/02 08:39:02;;;;;;;8.60;6.67;;;;;;;14.63;71.92;94801.14;1648880;84;21040;-61
2021/09/02 08:41:31;;;;;;;11.50;6.50;;;;;;;14.56;72.11;94804.88;1635934;85;21352;-63
2021/09/02 08:43:59;;;;;;;7.22;5.15;;;;;;;14.52;72.10;94813.38;1660373;83;21128;-64
2021/09/02 08:46:26;;;;;;;11.88;6.30;;;;;;;14.51;71.33;94803.55;1673229;83;21090;-64
2021/09/02 08:48:53;;;;;;;8.23;4.92;;;;;;;14.55;71.24;94804.13;1691289;82;21382;-67
2021/09/02 08:51:20;;;;;;;16.32;9.10;;;;;;;14.61;70.71;94802.23;1678746;83;21018;-61
2021/09/02 08:53:50;;;;;;;12.47;7.40;;;;;;;14.69;70.09;94810.35;1675066;83;21116;-68
2021/09/02 08:56:19;;;;;;;11.65;7.58;;;;;;;14.80;70.15;94806.41;1680143;83;21621;-64
2021/09/02 08:58:46;;;;;;;5.47;4.35;;;;;;;14.95;68.95;94814.16;1695836;81;21211;-60
2021/09/02 09:01:18;;;;;;;7.05;5.25;;;;;;;15.05;67.21;94807.31;1686173;81;21166;-70
2021/09/02 09:03:50;;;;;;;5.70;4.08;;;;;;;15.16;66.44;94807.52;1686977;83;21066;-73
2021/09/02 09:06:27;;;;;;;14.15;7.40;;;;;;;15.41;65.30;94806.25;1694905;82;21471;-61
2021/09/02 09:08:56;;;;;;;6.60;4.42;;;;;;;15.66;64.30;94802.30;1662755;83;21083;-60
2021/09/02 09:11:30;;;;;;;8.83;4.20;;;;;;;15.97;64.14;94801.19;1702354;82;21006;-61
2021/09/02 09:14:13;;;;;;;7.78;4.28;;;;;;;16.28;63.84;94800.80;1678983;81;21895;-61
2021/09/02 09:17:01;;;;;;;7.08;4.58;;;;;;;16.51;60.78;94799.14;1694629;82;21066;-63
2021/09/02 09:19:49;;;;;;;12.70;8.48;;;;;;;16.74;59.85;94800.33;1704292;80;21120;-71
2021/09/02 09:22:17;;;;;;;7.50;5.72;;;;;;;16.95;59.87;94803.89;1649523;83;21062;-75
2021/09/02 09:24:53;;;;;;;8.58;3.72;;;;;;;17.09;58.45;94804.45;1676158;82;21125;-70
2021/09/02 09:27:48;;;;;;;4.97;3.33;;;;;;;17.16;56.16;94807.57;1684942;82;21545;-67
2021/09/02 09:30:29;;;;;;;24.03;20.97;;;;;;;16.96;55.07;94799.25;1691720;82;21055;-66
2021/09/02 09:33:03;;;;;;;;;;;;;;;16.82;57.12;94802.07;1680341;82;21737;-65
2021/09/02 09:35:39;;;;;;;7.72;3.72;;;;;;;16.93;57.12;94802.97;1687038;82;20173;-60
2021/09/02 09:38:18;;;;;;;4.97;3.05;;;;;;;17.00;57.36;94805.97;1674881;82;20987;-61
2021/09/02 09:40:47;;;;;;;69.00;54.38;;;;;;;17.19;55.97;94804.42;1690182;82;21146;-66
2021/09/02 09:43:16;;;;;;;9.50;7.37;;;;;;;17.31;55.91;94801.91;1685723;82;21071;-62
2021/09/02 09:45:53;;;;;;;22.87;18.35;;;;;;;17.38;55.60;94802.90;1683623;82;21047;-65
2021/09/02 09:48:31;;;;;;;9.13;6.37;;;;;;;17.26;55.88;94805.41;1666436;83;21229;-64
2021/09/02 09:51:19;;;;;;;7.37;3.72;;;;;;;17.47;56.76;94804.15;1692544;83;21104;-66
2021/09/02 09:53:49;;;;;;;10.32;4.00;;;;;;;17.55;55.69;94799.66;1693712;82;21128;-61
2021/09/02 09:56:25;;;;;;;4.30;3.70;;;;;;;17.82;53.64;94808.28;1680876;83;21587;-65
2021/09/02 09:58:55;;;;;;;8.68;4.67;;;;;;;18.00;54.11;94804.41;1647223;84;21244;-63
2021/09/02 10:01:23;;;;;;;5.45;3.77;;;;;;;18.09;53.45;94802.83;1706951;82;21537;-62
2021/09/02 10:03:54;;;;;;;3.30;2.60;;;;;;;18.11;53.47;94796.13;1681651;82;21128;-63
2021/09/02 10:06:22;;;;;;;5.20;4.65;;;;;;;17.90;53.70;94800.26;1684703;82;21188;-61
2021/09/02 10:08:50;;;;;;;7.05;4.67;;;;;;;17.98;54.62;94809.06;1649629;83;22499;-62
2021/09/02 10:11:17;;;;;;;27.52;18.17;;;;;;;18.13;55.31;94813.10;1674814;83;21176;-61
2021/09/02 10:13:44;;;;;;;7.08;5.55;;;;;;;18.43;53.61;94812.38;1675235;83;21167;-65
2021/09/02 10:16:11;;;;;;;6.62;4.28;;;;;;;18.65;51.57;94821.62;1699208;81;21199;-61
2021/09/02 10:18:44;;;;;;;3.37;3.08;;;;;;;18.69;52.72;94830.55;1677874;83;21846;-62
2021/09/02 10:21:12;;;;;;;6.83;3.83;;;;;;;18.82;53.44;94835.69;1690380;83;21179;-63
2021/09/02 10:23:39;;;;;;;5.75;2.77;;;;;;;19.06;51.41;94848.61;1673312;83;21062;-62
2021/09/02 10:26:06;;;;;;;3.40;2.58;;;;;;;19.21;49.56;94836.67;1684325;83;21030;-64
2021/09/02 10:28:35;;;;;;;10.68;3.35;;;;;;;19.31;46.80;94844.94;1668110;82;21058;-63
2021/09/02 10:31:09;;;;;;;4.05;2.52;;;;;;;19.54;46.93;94845.92;1702152;82;21106;-63
2021/09/02 10:33:43;;;;;;;7.62;2.87;;;;;;;19.87;46.87;94839.66;1675895;82;21165;-65
2021/09/02 10:36:19;;;;;;;2.60;2.30;;;;;;;20.25;46.77;94848.13;1677264;83;21108;-65
2021/09/02 10:39:08;;;;;;;4.42;2.70;;;;;;;20.76;43.99;94844.81;1686788;83;21185;-64
2021/09/02 10:41:41;;;;;;;3.55;2.02;;;;;;;21.16;44.06;94843.63;1674831;84;21114;-67
2021/09/02 10:44:14;;;;;;;9.08;2.05;;;;;;;21.43;41.62;94846.17;1658974;84;21030;-64
2021/09/02 10:46:51;;;;;;;11.65;2.80;;;;;;;21.41;39.68;94844.53;1639462;84;21110;-63
2021/09/02 10:49:36;;;;;;;3.62;2.83;;;;;;;21.41;39.61;94850.13;1650132;83;21078;-68
2021/09/02 10:52:08;;;;;;;2.58;2.30;;;;;;;21.59;40.19;94854.52;1664078;83;22365;-67
2021/09/02 10:54:38;;;;;;;5.08;2.40;;;;;;;21.76;39.45;94856.64;1663950;83;21100;-68
2021/09/02 10:57:08;;;;;;;5.92;2.00;;;;;;;21.80;38.85;94859.17;1651083;84;21716;-65
2021/09/02 10:59:53;;;;;;;9.38;2.67;;;;;;;21.75;38.45;94858.55;1676172;83;21823;-65
2021/09/02 11:02:29;;;;;;;4.33;2.77;;;;;;;21.75;39.18;94866.95;1668293;83;21250;-64
2021/09/02 11:05:01;;;;;;;6.58;2.17;;;;;;;21.50;38.72;94863.86;1670701;83;21076;-64
2021/09/02 11:07:40;;;;;;;3.22;2.33;;;;;;;21.24;39.09;94862.02;1665534;85;21116;-65
2021/09/02 11:10:10;;;;;;;3.72;2.40;;;;;;;21.09;38.57;94861.58;1667571;84;21539;-65
2021/09/02 11:12:37;;;;;;;6.92;3.85;;;;;;;21.06;39.51;94866.15;1667139;83;21157;-66
2021/09/02 11:15:06;;;;;;;10.18;2.92;;;;;;;21.20;39.47;94881.12;1687212;83;21009;-63
2021/09/02 11:17:33;;;;;;;5.20;2.45;;;;;;;21.39;37.34;94875.08;1713308;82;21088;-64
2021/09/02 11:20:00;;;;;;;3.15;2.45;;;;;;;21.51;37.48;94872.37;1666461;83;21042;-67
2021/09/02 11:22:27;;;;;;;8.38;3.65;;;;;;;21.75;37.53;94875.35;1692162;82;21131;-65
2021/09/02 11:24:54;;;;;;;3.05;2.35;;;;;;;21.96;39.15;94876.52;1714848;82;20978;-72
2021/09/02 11:27:32;;;;;;;9.53;6.12;;;;;;;22.41;36.82;94874.34;1679501;82;21010;-60
2021/09/02 11:30:19;;;;;;;3.83;3.05;;;;;;;22.82;36.12;94876.45;1615217;87;21174;-62
2021/09/02 11:32:56;;;;;;;8.03;6.72;;;;;;;22.99;35.06;94873.60;1589209;87;21066;-63
2021/09/02 11:35:25;;;;;;;4.05;3.05;;;;;;;23.14;36.83;94880.24;1573113;89;21130;-64
2021/09/02 11:37:53;;;;;;;12.95;3.62;;;;;;;23.74;35.42;94871.80;1571489;89;21107;-71
2021/09/02 11:40:24;;;;;;;5.95;2.90;;;;;;;24.38;33.58;94877.08;1606154;86;21862;-65